createdAt,value
2018-12-07T00:00:46.769Z,24.00
2018-12-07T00:01:46.774Z,23.10
2018-12-07T00:02:46.776Z,23.20
2018-12-07T00:03:46.770Z,23.10
2018-12-07T00:04:46.774Z,22.60
2018-12-07T00:05:46.789Z,22.10
2018-12-07T00:06:46.773Z,21.60
2018-12-07T00:07:46.783Z,21.40
2018-12-07T00:08:46.774Z,21.70
2018-12-07T00:09:46.785Z,21.60
2018-12-07T00:10:46.787Z,21.80
2018-12-07T00:11:46.786Z,21.30
2018-12-07T00:12:46.781Z,21.20
2018-12-07T00:13:46.784Z,21.20
2018-12-07T00:14:46.804Z,20.90
2018-12-07T00:15:46.803Z,21.40
2018-12-07T00:16:46.790Z,21.70
2018-12-07T00:17:46.790Z,20.70
2018-12-07T00:18:46.794Z,20.30
2018-12-07T00:19:48.109Z,20.70
2018-12-07T00:20:46.793Z,19.60
2018-12-07T00:21:46.799Z,20.70
2018-12-07T00:22:46.795Z,20.90
2018-12-07T00:23:46.790Z,20.00
2018-12-07T00:24:46.785Z,19.90
2018-12-07T00:25:46.778Z,20.80
2018-12-07T00:26:46.790Z,20.60
2018-12-07T00:27:46.789Z,20.60
2018-12-07T00:28:46.789Z,20.80
2018-12-07T00:29:46.785Z,21.00
2018-12-07T00:30:46.793Z,20.10
2018-12-07T00:31:46.784Z,20.40
2018-12-07T00:32:46.791Z,20.00
2018-12-07T00:33:46.797Z,20.30
2018-12-07T00:34:46.783Z,19.60
2018-12-07T00:35:46.796Z,20.20
2018-12-07T00:36:46.810Z,20.60
2018-12-07T00:37:46.802Z,20.40
2018-12-07T00:38:46.799Z,20.50
2018-12-07T00:39:46.801Z,19.90
2018-12-07T00:40:46.789Z,19.60
2018-12-07T00:41:46.796Z,19.70
2018-12-07T00:42:46.802Z,19.70
2018-12-07T00:43:46.800Z,19.20
2018-12-07T00:44:48.349Z,19.90
2018-12-07T00:45:46.806Z,18.80
2018-12-07T00:46:46.797Z,19.30
2018-12-07T00:47:46.793Z,18.60
2018-12-07T00:48:46.800Z,18.50
2018-12-07T00:49:46.804Z,19.20
2018-12-07T00:50:46.797Z,18.20
2018-12-07T00:51:46.802Z,18.70
2018-12-07T00:52:46.794Z,17.10
2018-12-07T00:53:46.802Z,18.20
2018-12-07T00:54:46.814Z,17.80
2018-12-07T00:55:46.796Z,18.00
2018-12-07T00:56:46.795Z,18.10
2018-12-07T00:57:46.796Z,18.30
2018-12-07T00:58:46.804Z,19.10
2018-12-07T00:59:46.804Z,18.10
2018-12-07T01:00:46.810Z,18.30
2018-12-07T01:01:46.813Z,18.40
2018-12-07T01:02:46.802Z,17.90
2018-12-07T01:03:46.814Z,18.90
2018-12-07T01:04:46.816Z,17.30
2018-12-07T01:05:46.802Z,18.10
2018-12-07T01:06:46.801Z,18.50
2018-12-07T01:07:46.817Z,18.50
2018-12-07T01:08:46.817Z,18.50
2018-12-07T01:09:46.813Z,18.30
2018-12-07T01:10:46.810Z,18.30
2018-12-07T01:11:46.811Z,18.30
2018-12-07T01:12:46.812Z,18.20
2018-12-07T01:13:46.818Z,19.60
2018-12-07T01:14:46.815Z,19.10
2018-12-07T01:15:46.804Z,19.00
2018-12-07T01:16:46.819Z,20.60
2018-12-07T01:17:46.818Z,20.30
2018-12-07T01:18:46.814Z,20.20
2018-12-07T01:19:46.815Z,21.50
2018-12-07T01:20:46.810Z,20.90
2018-12-07T01:21:46.819Z,21.00
2018-12-07T01:22:46.809Z,22.70
2018-12-07T01:23:46.830Z,21.60
2018-12-07T01:24:46.839Z,21.90
2018-12-07T01:25:46.813Z,22.00
2018-12-07T01:26:46.804Z,23.80
2018-12-07T01:27:46.810Z,24.20
2018-12-07T01:28:46.809Z,22.30
2018-12-07T01:29:46.813Z,24.30
2018-12-07T01:30:46.813Z,24.70
2018-12-07T01:31:46.827Z,25.30
2018-12-07T01:32:46.840Z,25.30
2018-12-07T01:33:46.818Z,26.30
2018-12-07T01:34:46.826Z,27.80
2018-12-07T01:35:46.817Z,28.60
2018-12-07T01:36:46.823Z,29.20
2018-12-07T01:37:46.850Z,31.20
2018-12-07T01:38:46.820Z,31.00
2018-12-07T01:39:46.812Z,31.70
2018-12-07T01:40:46.809Z,31.80
2018-12-07T01:41:46.822Z,31.90
2018-12-07T01:42:46.825Z,31.30
2018-12-07T01:43:46.819Z,32.00
2018-12-07T01:44:46.826Z,33.20
2018-12-07T01:45:46.826Z,32.90
2018-12-07T01:46:46.820Z,33.00
2018-12-07T01:47:46.822Z,34.20
2018-12-07T01:48:46.814Z,33.50
2018-12-07T01:49:46.814Z,33.60
2018-12-07T01:50:46.830Z,31.30
2018-12-07T01:51:46.817Z,32.40
2018-12-07T01:52:46.823Z,32.00
2018-12-07T01:53:46.838Z,31.60
2018-12-07T01:54:46.833Z,34.10
2018-12-07T01:55:46.826Z,31.90
2018-12-07T01:56:46.821Z,31.70
2018-12-07T01:57:46.824Z,32.40
2018-12-07T01:58:46.819Z,32.70
2018-12-07T01:59:46.822Z,31.40
2018-12-07T02:00:46.833Z,31.10
2018-12-07T02:01:46.823Z,32.20
2018-12-07T02:02:46.826Z,30.70
2018-12-07T02:03:46.823Z,31.60
2018-12-07T02:04:46.834Z,30.60
2018-12-07T02:05:46.847Z,30.80
2018-12-07T02:06:46.825Z,32.20
2018-12-07T02:07:46.825Z,32.30
2018-12-07T02:08:46.828Z,31.20
2018-12-07T02:09:46.840Z,31.10
2018-12-07T02:10:46.839Z,31.90
2018-12-07T02:11:46.834Z,32.00
2018-12-07T02:12:46.864Z,31.90
2018-12-07T02:13:46.859Z,32.50
2018-12-07T02:14:46.829Z,34.80
2018-12-07T02:15:46.836Z,33.00
2018-12-07T02:16:46.825Z,33.40
2018-12-07T02:17:46.840Z,33.10
2018-12-07T02:18:46.844Z,31.80
2018-12-07T02:19:46.850Z,32.30
2018-12-07T02:20:46.837Z,31.70
2018-12-07T02:21:46.831Z,32.60
2018-12-07T02:22:46.839Z,32.40
2018-12-07T02:23:46.841Z,32.30
2018-12-07T02:24:46.841Z,31.90
2018-12-07T02:25:46.860Z,31.80
2018-12-07T02:26:46.836Z,32.50
2018-12-07T02:27:46.827Z,33.30
2018-12-07T02:28:46.835Z,32.60
2018-12-07T02:29:46.831Z,33.40
2018-12-07T02:30:46.833Z,32.30
2018-12-07T02:31:46.839Z,33.10
2018-12-07T02:32:46.838Z,33.70
2018-12-07T02:33:46.833Z,34.60
2018-12-07T02:34:46.845Z,34.50
2018-12-07T02:35:46.845Z,34.30
2018-12-07T02:36:46.860Z,33.90
2018-12-07T02:37:46.840Z,36.50
2018-12-07T02:38:46.845Z,34.30
2018-12-07T02:39:46.838Z,35.10
2018-12-07T02:40:46.843Z,34.20
2018-12-07T02:41:46.845Z,35.00
2018-12-07T02:42:46.855Z,34.50
2018-12-07T02:43:46.860Z,35.30
2018-12-07T02:44:46.866Z,35.00
2018-12-07T02:45:46.838Z,36.40
2018-12-07T02:46:46.846Z,35.10
2018-12-07T02:47:46.845Z,35.40
2018-12-07T02:48:46.847Z,36.30
2018-12-07T02:49:46.847Z,35.10
2018-12-07T02:50:46.839Z,34.80
2018-12-07T02:51:46.841Z,35.90
2018-12-07T02:52:46.852Z,35.50
2018-12-07T02:53:46.844Z,34.20
2018-12-07T02:54:46.852Z,34.80
2018-12-07T02:55:46.838Z,34.70
2018-12-07T02:56:46.853Z,35.90
2018-12-07T02:57:46.848Z,34.10
2018-12-07T02:58:46.849Z,33.80
2018-12-07T02:59:46.843Z,34.10
2018-12-07T03:00:46.847Z,34.30
2018-12-07T03:01:46.894Z,35.70
2018-12-07T03:02:46.867Z,34.30
2018-12-07T03:03:46.860Z,35.50
2018-12-07T03:04:46.852Z,34.70
2018-12-07T03:05:46.848Z,35.60
2018-12-07T03:06:46.850Z,36.50
2018-12-07T03:07:46.850Z,35.00
2018-12-07T03:08:46.848Z,36.60
2018-12-07T03:09:46.847Z,34.60
2018-12-07T03:10:46.850Z,34.60
2018-12-07T03:11:46.857Z,35.50
2018-12-07T03:12:46.857Z,35.60
2018-12-07T03:13:46.851Z,36.50
2018-12-07T03:14:46.845Z,36.10
2018-12-07T03:15:46.847Z,36.70
2018-12-07T03:16:46.856Z,38.50
2018-12-07T03:17:46.857Z,36.80
2018-12-07T03:18:46.849Z,38.90
2018-12-07T03:19:46.857Z,38.20
2018-12-07T03:20:46.855Z,38.80
2018-12-07T03:21:46.854Z,37.90
2018-12-07T03:22:46.868Z,39.00
2018-12-07T03:23:46.847Z,38.60
2018-12-07T03:24:46.861Z,39.00
2018-12-07T03:25:46.856Z,39.20
2018-12-07T03:26:46.859Z,38.60
2018-12-07T03:27:46.859Z,37.20
2018-12-07T03:28:46.852Z,40.20
2018-12-07T03:29:46.852Z,38.20
2018-12-07T03:30:46.873Z,40.40
2018-12-07T03:31:46.860Z,39.30
2018-12-07T03:32:46.868Z,37.60
2018-12-07T03:33:46.873Z,39.30
2018-12-07T03:34:46.858Z,38.70
2018-12-07T03:35:46.872Z,38.60
2018-12-07T03:36:46.868Z,37.80
2018-12-07T03:37:46.854Z,36.50
2018-12-07T03:38:46.857Z,37.70
2018-12-07T03:39:46.872Z,36.40
2018-12-07T03:40:46.875Z,37.30
2018-12-07T03:41:46.857Z,36.70
2018-12-07T03:42:46.859Z,34.90
2018-12-07T03:43:46.873Z,35.30
2018-12-07T03:44:46.859Z,36.10
2018-12-07T03:45:46.865Z,35.70
2018-12-07T03:46:46.866Z,35.30
2018-12-07T03:47:46.865Z,35.20
2018-12-07T03:48:46.861Z,36.30
2018-12-07T03:49:46.875Z,37.00
2018-12-07T03:50:46.870Z,37.80
2018-12-07T03:51:46.867Z,37.30
2018-12-07T03:52:46.869Z,37.20
2018-12-07T03:53:46.870Z,36.10
2018-12-07T03:54:46.864Z,35.60
2018-12-07T03:55:46.867Z,36.10
2018-12-07T03:56:46.864Z,38.70
2018-12-07T03:57:46.872Z,38.30
2018-12-07T03:58:46.866Z,36.80
2018-12-07T03:59:46.868Z,38.10
2018-12-07T04:00:46.872Z,37.10
2018-12-07T04:01:46.873Z,37.00
2018-12-07T04:02:46.873Z,35.80
2018-12-07T04:03:46.871Z,34.20
2018-12-07T04:04:46.868Z,34.50
2018-12-07T04:05:46.884Z,35.50
2018-12-07T04:06:46.874Z,35.90
2018-12-07T04:07:46.895Z,35.40
2018-12-07T04:08:46.895Z,36.30
2018-12-07T04:09:46.873Z,36.30
2018-12-07T04:10:46.879Z,36.00
2018-12-07T04:11:46.872Z,38.00
2018-12-07T04:12:46.880Z,34.30
2018-12-07T04:13:46.876Z,35.10
2018-12-07T04:14:46.870Z,35.00
2018-12-07T04:15:46.878Z,35.00
2018-12-07T04:16:46.879Z,34.80
2018-12-07T04:17:46.883Z,35.00
2018-12-07T04:18:46.895Z,34.80
2018-12-07T04:19:46.876Z,35.20
2018-12-07T04:20:46.880Z,35.60
2018-12-07T04:21:46.882Z,35.50
2018-12-07T04:22:46.889Z,34.60
2018-12-07T04:23:46.892Z,33.50
2018-12-07T04:24:46.874Z,33.30
2018-12-07T04:25:46.877Z,31.70
2018-12-07T04:26:46.899Z,32.10
2018-12-07T04:27:46.885Z,33.00
2018-12-07T04:28:46.884Z,32.90
2018-12-07T04:29:46.873Z,32.90
2018-12-07T04:30:46.883Z,32.30
2018-12-07T04:31:46.883Z,31.90
2018-12-07T04:32:46.883Z,31.70
2018-12-07T04:33:46.883Z,31.80
2018-12-07T04:34:46.904Z,32.10
2018-12-07T04:35:46.887Z,32.00
2018-12-07T04:36:46.909Z,32.80
2018-12-07T04:37:46.902Z,31.20
2018-12-07T04:38:46.896Z,31.80
2018-12-07T04:39:46.887Z,31.90
2018-12-07T04:40:46.890Z,30.40
2018-12-07T04:41:46.883Z,28.90
2018-12-07T04:42:46.891Z,31.80
2018-12-07T04:43:46.889Z,30.70
2018-12-07T04:44:46.889Z,31.40
2018-12-07T04:45:46.885Z,30.90
2018-12-07T04:46:46.892Z,31.50
2018-12-07T04:47:46.896Z,32.00
2018-12-07T04:48:46.895Z,31.40
2018-12-07T04:49:46.893Z,33.10
2018-12-07T04:50:46.900Z,32.50
2018-12-07T04:51:46.886Z,32.30
2018-12-07T04:52:46.888Z,32.60
2018-12-07T04:53:46.889Z,29.90
2018-12-07T04:54:46.913Z,32.40
2018-12-07T04:55:46.907Z,30.90
2018-12-07T04:56:46.893Z,28.80
2018-12-07T04:57:46.897Z,29.80
2018-12-07T04:58:46.904Z,29.30
2018-12-07T04:59:46.914Z,30.20
2018-12-07T05:00:46.895Z,31.20
2018-12-07T05:01:46.897Z,28.90
2018-12-07T05:02:46.895Z,27.90
2018-12-07T05:03:46.887Z,28.70
2018-12-07T05:04:46.897Z,27.40
2018-12-07T05:05:46.901Z,26.50
2018-12-07T05:06:46.899Z,25.90
2018-12-07T05:07:46.894Z,26.20
2018-12-07T05:08:46.895Z,25.30
2018-12-07T05:09:46.894Z,25.00
2018-12-07T05:10:46.909Z,24.00
2018-12-07T05:11:46.901Z,24.80
2018-12-07T05:12:46.905Z,24.30
2018-12-07T05:13:46.910Z,24.60
2018-12-07T05:14:46.900Z,24.70
2018-12-07T05:15:46.901Z,25.00
2018-12-07T05:16:46.909Z,24.20
2018-12-07T05:17:46.917Z,26.00
2018-12-07T05:18:46.910Z,25.90
2018-12-07T05:19:46.900Z,23.70
2018-12-07T05:20:46.905Z,23.50
2018-12-07T05:21:46.907Z,23.00
2018-12-07T05:22:46.908Z,24.00
2018-12-07T05:23:46.908Z,23.50
2018-12-07T05:24:46.907Z,23.80
2018-12-07T05:25:46.899Z,23.90
2018-12-07T05:26:46.905Z,23.60
2018-12-07T05:27:46.902Z,23.00
2018-12-07T05:28:46.923Z,23.20
2018-12-07T05:29:46.905Z,21.80
2018-12-07T05:30:46.898Z,22.50
2018-12-07T05:31:46.901Z,22.90
2018-12-07T05:32:46.901Z,20.90
2018-12-07T05:33:46.935Z,22.50
2018-12-07T05:34:46.906Z,22.10
2018-12-07T05:35:46.916Z,22.00
2018-12-07T05:36:46.916Z,21.70
2018-12-07T05:37:46.928Z,22.70
2018-12-07T05:38:46.914Z,20.50
2018-12-07T05:39:46.920Z,20.70
2018-12-07T05:40:46.928Z,22.30
2018-12-07T05:41:46.907Z,21.30
2018-12-07T05:42:46.903Z,20.90
2018-12-07T05:43:46.918Z,20.70
2018-12-07T05:44:46.919Z,21.30
2018-12-07T05:45:46.918Z,21.60
2018-12-07T05:46:46.920Z,20.60
2018-12-07T05:47:46.931Z,22.20
2018-12-07T05:48:46.908Z,20.20
2018-12-07T05:49:46.923Z,20.00
2018-12-07T05:50:46.922Z,20.10
2018-12-07T05:51:46.916Z,20.00
2018-12-07T05:52:46.912Z,20.00
2018-12-07T05:53:46.925Z,19.80
2018-12-07T05:54:46.927Z,20.80
2018-12-07T05:55:46.921Z,21.00
2018-12-07T05:56:46.926Z,20.40
2018-12-07T05:57:46.918Z,20.60
2018-12-07T05:58:46.924Z,22.10
2018-12-07T05:59:46.931Z,20.60
2018-12-07T06:00:46.923Z,20.50
2018-12-07T06:01:46.925Z,20.60
2018-12-07T06:02:46.934Z,20.20
2018-12-07T06:03:46.933Z,19.90
2018-12-07T06:04:46.937Z,19.80
2018-12-07T06:05:46.935Z,20.50
2018-12-07T06:06:46.921Z,19.10
2018-12-07T06:07:46.927Z,21.20
2018-12-07T06:08:46.925Z,20.40
2018-12-07T06:09:46.926Z,19.40
2018-12-07T06:10:46.918Z,20.50
2018-12-07T06:11:46.919Z,20.10
2018-12-07T06:12:46.930Z,20.20
2018-12-07T06:13:46.931Z,19.90
2018-12-07T06:14:46.933Z,18.90
2018-12-07T06:15:46.925Z,20.00
2018-12-07T06:16:46.921Z,20.00
2018-12-07T06:17:46.928Z,19.80
2018-12-07T06:18:46.926Z,19.40
2018-12-07T06:19:46.943Z,20.90
2018-12-07T06:20:46.928Z,19.80
2018-12-07T06:21:46.933Z,20.30
2018-12-07T06:22:46.922Z,20.20
2018-12-07T06:23:46.933Z,20.90
2018-12-07T06:24:46.936Z,20.10
2018-12-07T06:25:46.928Z,21.60
2018-12-07T06:26:46.925Z,21.90
2018-12-07T06:27:46.933Z,20.40
2018-12-07T06:28:46.930Z,21.00
2018-12-07T06:29:46.932Z,20.20
2018-12-07T06:30:46.932Z,20.50
2018-12-07T06:31:46.924Z,20.60
2018-12-07T06:32:46.933Z,21.50
2018-12-07T06:33:46.943Z,20.90
2018-12-07T06:34:46.939Z,20.90
2018-12-07T06:35:46.950Z,20.40
2018-12-07T06:36:46.946Z,21.50
2018-12-07T06:37:46.946Z,22.40
2018-12-07T06:38:46.949Z,22.30
2018-12-07T06:39:46.932Z,21.00
2018-12-07T06:40:46.945Z,21.60
2018-12-07T06:41:46.932Z,21.20
2018-12-07T06:42:46.936Z,21.70
2018-12-07T06:43:46.929Z,22.20
2018-12-07T06:44:46.936Z,21.60
2018-12-07T06:45:46.942Z,20.50
2018-12-07T06:46:46.929Z,21.80
2018-12-07T06:47:46.947Z,21.50
2018-12-07T06:48:46.947Z,22.00
2018-12-07T06:49:46.947Z,20.00
2018-12-07T06:50:46.951Z,19.60
2018-12-07T06:51:46.942Z,19.50
2018-12-07T06:52:46.964Z,20.00
2018-12-07T06:53:46.938Z,21.10
2018-12-07T06:54:46.942Z,20.20
2018-12-07T06:55:46.948Z,20.90
2018-12-07T06:56:46.940Z,19.80
2018-12-07T06:57:48.242Z,19.90
2018-12-07T06:58:46.942Z,20.50
2018-12-07T06:59:46.956Z,19.80
2018-12-07T07:00:46.944Z,20.30
2018-12-07T07:01:46.964Z,20.60
2018-12-07T07:02:46.957Z,19.30
2018-12-07T07:03:46.943Z,18.40
2018-12-07T07:04:46.951Z,17.70
2018-12-07T07:05:46.942Z,18.30
2018-12-07T07:06:48.552Z,17.10
2018-12-07T07:07:46.947Z,17.50
2018-12-07T07:08:46.961Z,16.10
2018-12-07T07:09:46.949Z,15.40
2018-12-07T07:10:46.973Z,15.90
2018-12-07T07:11:46.974Z,16.50
2018-12-07T07:12:46.948Z,16.30
2018-12-07T07:13:46.952Z,16.80
2018-12-07T07:14:46.952Z,16.00
2018-12-07T07:15:46.962Z,15.00
2018-12-07T07:16:46.947Z,16.10
2018-12-07T07:17:46.964Z,16.10
2018-12-07T07:18:46.945Z,14.80
2018-12-07T07:19:46.955Z,15.30
2018-12-07T07:20:46.967Z,15.50
2018-12-07T07:21:46.981Z,15.70
2018-12-07T07:22:46.974Z,15.60
2018-12-07T07:23:46.959Z,15.30
2018-12-07T07:24:46.949Z,16.40
2018-12-07T07:25:46.955Z,15.90
2018-12-07T07:26:46.959Z,15.00
2018-12-07T07:27:46.960Z,15.50
2018-12-07T07:28:46.952Z,16.80
2018-12-07T07:29:46.957Z,16.50
2018-12-07T07:30:46.954Z,17.10
2018-12-07T07:31:46.965Z,15.20
2018-12-07T07:32:46.948Z,15.20
2018-12-07T07:33:46.949Z,15.20
2018-12-07T07:34:46.966Z,15.50
2018-12-07T07:35:46.955Z,15.60
2018-12-07T07:36:46.963Z,15.00
2018-12-07T07:37:46.959Z,15.60
2018-12-07T07:38:46.968Z,16.00
2018-12-07T07:39:46.964Z,16.00
2018-12-07T07:40:46.977Z,15.40
2018-12-07T07:41:46.959Z,15.40
2018-12-07T07:42:46.960Z,15.10
2018-12-07T07:43:46.971Z,14.90
2018-12-07T07:44:46.974Z,14.20
2018-12-07T07:45:46.962Z,14.70
2018-12-07T07:46:46.959Z,14.30
2018-12-07T07:47:46.963Z,13.90
2018-12-07T07:48:46.965Z,14.90
2018-12-07T07:49:46.966Z,14.20
2018-12-07T07:50:46.970Z,13.50
2018-12-07T07:51:46.965Z,13.10
2018-12-07T07:52:46.979Z,13.80
2018-12-07T07:53:46.969Z,13.90
2018-12-07T07:54:46.964Z,13.60
2018-12-07T07:55:46.988Z,12.70
2018-12-07T07:56:48.083Z,13.80
2018-12-07T07:57:46.977Z,13.40
2018-12-07T07:58:46.971Z,13.70
2018-12-07T07:59:46.980Z,13.40
2018-12-07T08:00:46.979Z,13.70
2018-12-07T08:01:46.974Z,12.80
2018-12-07T08:02:46.983Z,11.90
2018-12-07T08:03:46.974Z,12.40
2018-12-07T08:04:46.968Z,11.80
2018-12-07T08:05:46.973Z,11.70
2018-12-07T08:06:46.983Z,11.40
2018-12-07T08:07:46.973Z,11.50
2018-12-07T08:08:46.975Z,11.10
2018-12-07T08:09:46.976Z,11.00
2018-12-07T08:10:46.974Z,10.80
2018-12-07T08:11:46.982Z,11.30
2018-12-07T08:12:46.975Z,10.80
2018-12-07T08:13:46.989Z,10.70
2018-12-07T08:14:46.982Z,11.20
2018-12-07T08:15:46.980Z,10.20
2018-12-07T08:16:46.977Z,10.80
2018-12-07T08:17:46.977Z,10.50
2018-12-07T08:18:46.988Z,10.80
2018-12-07T08:19:47.001Z,10.10
2018-12-07T08:20:46.981Z,10.00
2018-12-07T08:21:46.975Z,11.10
2018-12-07T08:22:46.980Z,10.10
2018-12-07T08:23:46.980Z,9.80
2018-12-07T08:24:46.978Z,9.10
2018-12-07T08:25:46.974Z,9.70
2018-12-07T08:26:46.981Z,9.50
2018-12-07T08:27:46.976Z,9.30
2018-12-07T08:28:46.986Z,9.00
2018-12-07T08:29:46.992Z,9.10
2018-12-07T08:30:46.981Z,8.40
2018-12-07T08:31:46.985Z,8.50
2018-12-07T08:32:46.977Z,8.10
2018-12-07T08:33:46.983Z,7.80
2018-12-07T08:34:47.003Z,8.10
2018-12-07T08:35:47.278Z,8.50
2018-12-07T08:36:47.004Z,8.00
2018-12-07T08:37:47.005Z,8.40
2018-12-07T08:38:46.995Z,8.50
2018-12-07T08:39:47.001Z,8.40
2018-12-07T08:40:46.995Z,8.30
2018-12-07T08:41:46.998Z,7.80
2018-12-07T08:42:46.997Z,8.40
2018-12-07T08:43:46.998Z,7.90
2018-12-07T08:44:46.998Z,8.40
2018-12-07T08:45:46.998Z,8.30
2018-12-07T08:46:46.999Z,8.00
2018-12-07T08:47:46.990Z,8.40
2018-12-07T08:48:46.990Z,8.40
2018-12-07T08:49:47.006Z,8.10
2018-12-07T08:50:47.007Z,8.70
2018-12-07T08:51:47.000Z,8.40
2018-12-07T08:52:46.993Z,8.90
2018-12-07T08:53:47.009Z,8.50
2018-12-07T08:54:46.995Z,7.60
2018-12-07T08:55:46.993Z,7.50
2018-12-07T08:56:46.992Z,7.70
2018-12-07T08:57:47.014Z,8.20
2018-12-07T08:58:46.988Z,8.40
2018-12-07T08:59:47.007Z,9.00
2018-12-07T09:00:47.007Z,9.00
2018-12-07T09:01:47.006Z,8.50
2018-12-07T09:02:47.002Z,8.50
2018-12-07T09:03:46.998Z,8.50
2018-12-07T09:04:47.002Z,8.80
2018-12-07T09:05:47.011Z,9.30
2018-12-07T09:06:47.009Z,9.00
2018-12-07T09:07:47.015Z,9.00
2018-12-07T09:08:47.017Z,9.30
2018-12-07T09:09:47.012Z,9.40
2018-12-07T09:10:47.012Z,10.60
2018-12-07T09:11:47.009Z,9.80
2018-12-07T09:12:46.999Z,9.10
2018-12-07T09:13:47.006Z,9.70
2018-12-07T09:14:46.998Z,10.00
2018-12-07T09:15:47.005Z,9.90
2018-12-07T09:16:47.014Z,10.40
2018-12-07T09:17:48.752Z,9.70
2018-12-07T09:18:47.012Z,10.40
2018-12-07T09:19:47.003Z,10.40
2018-12-07T09:20:53.784Z,10.80
2018-12-07T09:21:47.019Z,10.30
2018-12-07T09:22:47.020Z,10.70
2018-12-07T09:23:49.671Z,10.40
2018-12-07T09:24:47.011Z,10.30
2018-12-07T09:25:47.009Z,10.40
2018-12-07T09:26:47.005Z,10.50
2018-12-07T09:27:47.010Z,10.10
2018-12-07T09:28:47.037Z,10.20
2018-12-07T09:29:47.001Z,9.60
2018-12-07T09:30:47.007Z,9.90
2018-12-07T09:31:47.042Z,10.10
2018-12-07T09:32:47.000Z,10.70
2018-12-07T09:33:47.010Z,10.50
2018-12-07T09:34:47.008Z,9.70
2018-12-07T09:35:47.013Z,10.50
2018-12-07T09:36:47.011Z,9.80
2018-12-07T09:37:47.013Z,10.00
2018-12-07T09:38:47.008Z,10.10
2018-12-07T09:39:47.009Z,9.80
2018-12-07T09:40:47.042Z,10.30
2018-12-07T09:41:47.038Z,11.50
2018-12-07T09:42:47.031Z,11.30
2018-12-07T09:43:47.066Z,10.90
2018-12-07T09:44:47.012Z,10.40
2018-12-07T09:45:47.021Z,10.20
2018-12-07T09:46:47.021Z,10.30
2018-12-07T09:47:47.010Z,10.10
2018-12-07T09:48:47.026Z,10.50
2018-12-07T09:49:47.021Z,10.70
2018-12-07T09:50:47.025Z,10.70
2018-12-07T09:51:47.019Z,10.20
2018-12-07T09:52:47.023Z,10.30
2018-12-07T09:53:47.040Z,9.90
2018-12-07T09:54:47.013Z,11.00
2018-12-07T09:55:47.022Z,10.20
2018-12-07T09:56:47.024Z,10.40
2018-12-07T09:57:47.023Z,10.50
2018-12-07T09:58:47.040Z,10.90
2018-12-07T09:59:47.050Z,11.70
2018-12-07T10:00:47.024Z,11.00
2018-12-07T10:01:47.030Z,11.20
2018-12-07T10:02:47.030Z,11.70
2018-12-07T10:03:47.017Z,12.70
2018-12-07T10:04:47.039Z,12.10
2018-12-07T10:05:47.048Z,12.60
2018-12-07T10:06:47.045Z,12.80
2018-12-07T10:07:47.028Z,13.40
2018-12-07T10:08:47.053Z,13.00
2018-12-07T10:09:47.042Z,12.50
2018-12-07T10:10:47.019Z,13.50
2018-12-07T10:11:47.038Z,13.50
2018-12-07T10:12:47.024Z,13.70
2018-12-07T10:13:47.047Z,13.70
2018-12-07T10:14:47.032Z,14.00
2018-12-07T10:15:47.047Z,14.00
2018-12-07T10:16:47.032Z,13.80
2018-12-07T10:17:47.034Z,14.50
2018-12-07T10:18:47.031Z,15.20
2018-12-07T10:19:47.050Z,14.50
2018-12-07T10:20:47.054Z,14.60
2018-12-07T10:21:47.048Z,14.20
2018-12-07T10:22:47.032Z,13.90
2018-12-07T10:23:47.033Z,14.00
2018-12-07T10:24:47.048Z,14.10
2018-12-07T10:25:47.060Z,14.40
2018-12-07T10:26:47.035Z,14.00
2018-12-07T10:27:47.028Z,14.00
2018-12-07T10:28:47.027Z,14.70
2018-12-07T10:29:47.028Z,14.50
2018-12-07T10:30:47.031Z,13.60
2018-12-07T10:31:47.039Z,13.30
2018-12-07T10:32:47.054Z,13.20
2018-12-07T10:33:47.052Z,12.30
2018-12-07T10:34:47.098Z,12.40
2018-12-07T10:35:47.063Z,12.50
2018-12-07T10:36:47.036Z,12.60
2018-12-07T10:37:47.040Z,11.80
2018-12-07T10:38:47.039Z,12.30
2018-12-07T10:39:47.095Z,12.40
2018-12-07T10:40:47.075Z,11.50
2018-12-07T10:41:47.033Z,11.10
2018-12-07T10:42:47.046Z,11.70
2018-12-07T10:43:47.035Z,11.20
2018-12-07T10:44:47.046Z,11.60
2018-12-07T10:45:47.046Z,12.30
2018-12-07T10:46:47.059Z,11.70
2018-12-07T10:47:50.284Z,12.10
2018-12-07T10:48:47.046Z,10.90
2018-12-07T10:49:47.070Z,11.10
2018-12-07T10:50:47.068Z,10.90
2018-12-07T10:51:47.047Z,10.70
2018-12-07T10:52:47.049Z,10.40
2018-12-07T10:53:47.045Z,10.10
2018-12-07T10:54:47.036Z,10.50
2018-12-07T10:55:47.051Z,10.00
2018-12-07T10:56:47.051Z,10.40
2018-12-07T10:57:47.042Z,9.80
2018-12-07T10:58:47.037Z,10.10
2018-12-07T10:59:47.063Z,10.30
2018-12-07T11:00:47.066Z,10.20
2018-12-07T11:01:47.055Z,9.90
2018-12-07T11:02:47.071Z,10.20
2018-12-07T11:03:47.059Z,10.00
2018-12-07T11:04:47.072Z,10.30
2018-12-07T11:05:47.050Z,9.20
2018-12-07T11:06:47.051Z,9.90
2018-12-07T11:07:47.069Z,10.30
2018-12-07T11:08:47.044Z,9.90
2018-12-07T11:09:47.048Z,10.00
2018-12-07T11:10:47.082Z,9.80
2018-12-07T11:11:47.052Z,9.80
2018-12-07T11:12:47.054Z,9.50
2018-12-07T11:13:47.052Z,8.20
2018-12-07T11:14:47.082Z,8.90
2018-12-07T11:15:47.068Z,8.20
2018-12-07T11:16:47.062Z,8.20
2018-12-07T11:17:47.077Z,7.90
2018-12-07T11:18:47.052Z,8.30
2018-12-07T11:19:47.050Z,7.50
2018-12-07T11:20:47.061Z,8.00
2018-12-07T11:21:47.050Z,7.20
2018-12-07T11:22:47.075Z,7.10
2018-12-07T11:23:47.069Z,7.20
2018-12-07T11:24:47.055Z,6.50
2018-12-07T11:25:47.053Z,6.80
2018-12-07T11:26:47.054Z,6.90
2018-12-07T11:27:47.055Z,7.00
2018-12-07T11:28:47.068Z,6.80
2018-12-07T11:29:47.056Z,7.20
2018-12-07T11:30:47.075Z,7.30
2018-12-07T11:31:47.066Z,7.10
2018-12-07T11:32:47.059Z,6.80
2018-12-07T11:33:47.074Z,6.70
2018-12-07T11:34:47.054Z,7.60
2018-12-07T11:35:47.098Z,7.70
2018-12-07T11:36:47.077Z,7.70
2018-12-07T11:37:47.063Z,7.70
2018-12-07T11:38:47.069Z,7.40
2018-12-07T11:39:47.060Z,8.20
2018-12-07T11:40:47.057Z,7.50
2018-12-07T11:41:47.062Z,7.20
2018-12-07T11:42:47.060Z,7.70
2018-12-07T11:43:47.074Z,7.70
2018-12-07T11:44:47.075Z,7.60
2018-12-07T11:45:47.074Z,7.40
2018-12-07T11:46:47.080Z,7.60
2018-12-07T11:47:47.088Z,7.60
2018-12-07T11:48:47.084Z,8.20
2018-12-07T11:49:47.100Z,7.50
2018-12-07T11:50:47.066Z,7.40
2018-12-07T11:51:47.066Z,8.00
2018-12-07T11:52:47.071Z,7.10
2018-12-07T11:53:47.092Z,7.10
2018-12-07T11:54:47.102Z,7.10
2018-12-07T11:55:47.098Z,6.70
2018-12-07T11:56:47.080Z,6.90
2018-12-07T11:57:47.111Z,7.00
2018-12-07T11:58:47.111Z,6.40
2018-12-07T11:59:47.066Z,6.70
2018-12-07T12:00:47.069Z,7.00
2018-12-07T12:01:47.064Z,6.70
2018-12-07T12:02:47.076Z,6.50
2018-12-07T12:03:47.072Z,6.70
2018-12-07T12:04:47.098Z,6.50
2018-12-07T12:05:47.088Z,6.60
2018-12-07T12:06:47.078Z,6.30
2018-12-07T12:07:47.103Z,6.20
2018-12-07T12:08:47.079Z,6.10
2018-12-07T12:09:47.078Z,6.60
2018-12-07T12:10:47.237Z,5.70
2018-12-07T12:11:47.091Z,6.20
2018-12-07T12:12:47.091Z,5.70
2018-12-07T12:13:47.076Z,6.00
2018-12-07T12:14:47.110Z,5.90
2018-12-07T12:15:47.091Z,6.30
2018-12-07T12:16:47.103Z,6.50
2018-12-07T12:17:47.079Z,5.80
2018-12-07T12:18:47.085Z,5.90
2018-12-07T12:19:47.086Z,6.20
2018-12-07T12:20:47.087Z,5.60
2018-12-07T12:21:47.081Z,5.50
2018-12-07T12:22:47.099Z,5.70
2018-12-07T12:23:53.445Z,5.50
2018-12-07T12:24:47.085Z,5.30
2018-12-07T12:25:47.085Z,5.90
2018-12-07T12:26:47.095Z,5.60
2018-12-07T12:27:47.112Z,5.70
2018-12-07T12:28:47.096Z,5.60
2018-12-07T12:29:47.094Z,5.40
2018-12-07T12:30:47.101Z,5.60
2018-12-07T12:31:47.084Z,5.80
2018-12-07T12:32:47.143Z,6.20
2018-12-07T12:33:47.093Z,6.10
2018-12-07T12:34:47.094Z,6.30
2018-12-07T12:35:47.093Z,6.00
2018-12-07T12:36:47.096Z,6.40
2018-12-07T12:37:47.102Z,7.40
2018-12-07T12:38:47.097Z,6.10
2018-12-07T12:39:47.096Z,5.70
2018-12-07T12:40:47.106Z,6.20
2018-12-07T12:41:47.126Z,6.30
2018-12-07T12:42:47.098Z,6.50
2018-12-07T12:43:47.095Z,5.80
2018-12-07T12:44:47.106Z,6.10
2018-12-07T12:45:47.095Z,5.80
2018-12-07T12:46:47.092Z,6.10
2018-12-07T12:47:47.106Z,5.60
2018-12-07T12:48:47.089Z,5.80
2018-12-07T12:49:47.095Z,6.10
2018-12-07T12:50:47.113Z,5.80
2018-12-07T12:51:47.104Z,6.00
2018-12-07T12:52:47.100Z,6.00
2018-12-07T12:53:47.111Z,5.70
2018-12-07T12:54:47.107Z,5.90
2018-12-07T12:55:47.110Z,5.80
2018-12-07T12:56:47.118Z,5.50
2018-12-07T12:57:47.109Z,5.20
2018-12-07T12:58:47.098Z,6.00